This is the latest recevied weather packets stored in our database for station/object NN5DX-13. If no packets are shown the sender has not sent any weather packets the latest 1 day(s).
| Time | Temp. | Humidity | Pressure | Rain* | Wind** | Luminosity | Snow |
|---|---|---|---|---|---|---|---|
| 1836274541 | 24.44° C | 51% | 1017.3 hPa | 0 mm | 0.45 m/s, 203° | - | - |
| 1836274391 | 24.44° C | 49% | 1017.2 hPa | 0 mm | 0.45 m/s, 158° | - | - |
| 1836274241 | 24.44° C | 50% | 1017.3 hPa | 0 mm | 0.45 m/s, 158° | - | - |
| 1836274090 | 24.44° C | 49% | 1017.1 hPa | 0 mm | 0.45 m/s, 158° | - | - |
| 1778026817 | 27.22° C | 21% | 1007.9 hPa | 0 mm | 0.45 m/s, 0° | - | - |
| 1778026517 | 27.22° C | 20% | 1007.7 hPa | 0 mm | 0.45 m/s, 23° | - | - |
| 1778025617 | 27.78° C | 19% | 1007.5 hPa | 0 mm | 0.45 m/s, 338° | - | - |
| 1778024417 | 27.78° C | 19% | 1007.6 hPa | 0 mm | 0.45 m/s, 315° | - | - |
| 1778024116 | 27.78° C | 19% | 1007.6 hPa | 0 mm | 0.45 m/s, 0° | - | - |
| 1778023517 | 27.78° C | 19% | 1007.7 hPa | 0 mm | 0.45 m/s, 315° | - | - |
| 1778023217 | 27.78° C | 19% | 1007.6 hPa | 0 mm | 0.45 m/s, 338° | - | - |
| 1778022917 | 28.33° C | 19% | 1007.7 hPa | 0 mm | 0.45 m/s, 338° | - | - |
| 1778022616 | 28.33° C | 18% | 1007.9 hPa | 0 mm | 0.45 m/s, 338° | - | - |
| 1778022017 | 28.33° C | 19% | 1007.9 hPa | 0 mm | 0.45 m/s, 315° | - | - |
| 1778019916 | 28.89° C | 20% | 1008.1 hPa | 0 mm | 0.45 m/s, 0° | - | - |
| 1778019617 | 29.44° C | 20% | 1008.4 hPa | 0 mm | 0.45 m/s, 0° | - | - |
| 1778016617 | 30° C | 21% | 1008.8 hPa | 0 mm | 0.45 m/s, 315° | - | - |
| 1778016317 | 30° C | 22% | 1009 hPa | 0 mm | 0.45 m/s, 338° | - | - |
| 1778015416 | 30.56° C | 20% | 1009.2 hPa | 0 mm | 0.45 m/s, 0° | - | - |
| 1778014217 | 31.11° C | 20% | 1009.3 hPa | 0 mm | 0.45 m/s, 293° | - | - |
| 1778013017 | 30.56° C | 21% | 1009.4 hPa | 0 mm | 0.45 m/s, 23° | - | - |
| 1778012716 | 30.56° C | 21% | 1009.6 hPa | 0 mm | 0.45 m/s, 315° | - | - |
| 1778011517 | 30.56° C | 21% | 1009.8 hPa | 0 mm | 0.45 m/s, 315° | - | - |
| 1778007616 | 29.44° C | 22% | 1010.3 hPa | 0 mm | 0.45 m/s, 315° | - | - |
| 1778007316 | 28.89° C | 22% | 1010.3 hPa | 0 mm | 0.45 m/s, 315° | - | - |
* Rain latest hour (hover to see other rain measurements)
** Current wind speed in m/s (hover to see current wind gust speed)